ストックホルム/アーランダ の空港の天気 - METARとTAF

ストックホルム・アーランダ空港 ( ESSA / ARN ) - スウェーデン ストックホルム
飛行場実況気象(Metar)
観測時間02/28 01:20 CET (02/28 00:20 UTC)
風向・風速南南東 5m/s
視程3100m
天気現象もや
全天を覆う雲 雲底高度 90m
気温4℃
湿度100%
気圧993hPa
METARESSA 280020Z 16010KT 3100 BR OVC003 04/04 Q0993 R01L/29//95 R08/29//95 R01R/29//95 NOSIG
過去の天気等 Google飛行場航空写真 Wunderground天気予報

過去48時間のMETAR

飛行場予報(TAF)
発表時間: 2/28 00:30 CET (2/27 23:30 UTC)
予報対象時間: 28日1時 CET ~ 1日1時 CET
風向・風速南南東 4m/s
視程5,000m
天気現象もや
全天を覆う雲 雲底高度 90m
28日1時 CET ~ 28日7時 CET に一時的に
視程1,400m
全天を覆う雲 雲底高度 150m
28日7時 CET から 確率 40% で
視程3,000m
全天の4割程度の雲 雲底高度 150m
全天の8割程度の雲 雲底高度 910m
28日11時 CET ~ 28日13時 CET に徐々に
全天の4割程度の雲 雲底高度 300m
28日13時 CET から 確率 40% で
天気現象しゅう雨
全天の8割程度の雲 雲底高度 270m
TAF ESSA 272330Z 2800/2824 16008KT 5000 BR OVC003
TEMPO 2800/2806 1400 OVC005
PROB40 2806/2810 3000 SCT005 BKN030
BECMG 2810/2812 SCT010
PROB40 2812/2815 SHRA BKN009